Flight Track Log - Related Links

Times and Time Zones

All times are in EST time to prevent confusion due to time zone crossing. See the EJA951 flight status page for this flight to view local times or setup timezone preferences in your user account.

Time Position Orientation Groundspeed Altitude Reporting Facility
EST Latitude Longitude Course Direction KTS MPH feet Rate Location/Type
Sun 11:33:26 AM 27.2614 -80.3919 307° West 262 302 8,100  Level Miami Center
Sun 11:34:26 AM 27.3164 -80.4497 317° Northwest 262 302 9,000 450 Climbing Miami Center
Sun 11:35:26 AM 27.3692 -80.5075 316° Northwest 268 308 9,000  Level Miami Center
Sun 11:36:26 AM 27.4181 -80.5581 317° Northwest 262 302 9,000  Level Miami Center
Sun 11:37:26 AM 27.4731 -80.6161 317° Northwest 269 310 9,000  Level Miami Center
Sun 11:38:26 AM 27.5339 -80.6789 318° Northwest 269 310 9,000  Level Miami Center
Sun 11:39:26 AM 27.5886 -80.7392 316° Northwest 269 310 9,000  Level Miami Center
Sun 11:40:26 AM 27.6456 -80.7950 319° Northwest 269 310 9,000 37 Level Miami Center
Sun 11:42:09 AM 27.7500 -80.9000 318° Northwest 276 318 9,100 37 Climbing Orlando TRACON
Sun 11:43:10 AM 27.8000 -80.9500 319° Northwest 276 318 9,100  Level Orlando TRACON
Sun 11:44:10 AM 27.8500 -81.0167 310° West 276 318 9,100 -400 Level Orlando TRACON
Sun 11:45:10 AM 27.9167 -81.0667 326° Northwest 267 307 8,300 -529 Descending Orlando TRACON
Sun 11:47:00 AM 28.0358 -81.1326 339° North  Level FlightAware Approximate
Sun 11:51:10 AM 28.1833 -81.3167 199° South 161 185 5,400  Level Orlando TRACON
Sun 11:52:10 AM 28.2333 -81.3167 360° North 169 194 4,000 -1,140 Descending Orlando TRACON
Sun 11:53:11 AM 28.2667 -81.3167 360° North 170 196 3,100 -942 Descending Orlando TRACON
Sun 11:54:00 AM 28.4294 -81.3090 North  Level Estimated
Sun 11:54:11 AM 28.3167 -81.3167 360° North 164 189 2,100  Level Orlando TRACON
Sun 11:55:00 AM 28.4294 -81.3090 North  Level Estimated
Sun 11:55:11 AM 28.3667 -81.3333 344° North 161 185 1,400  Level Orlando TRACON
Sun 11:56:00 AM 28.4294 -81.3090 196° South  Level Estimated
Sun 11:56:11 AM 28.4000 -81.3333 360° North 129 148 500  Level Orlando TRACON
Sun 11:57:00 AM 28.4294 -81.3090 204° Southwest  Level Estimated
Sun 11:58:00 AM 28.4294 -81.3090 204° Southwest  Level Estimated
Sun 11:59:00 AM 28.4294 -81.3090 199° South  Level Estimated
Sun 12:00:00 PM 28.4294 -81.3090 199° South  Level Estimated
Sun 12:01:00 PM 28.4294 -81.3090 199° South  Level Estimated

Login

Don't have an account? Register now (free) for customized features, flight alerts, and more!